KEOK/EOK METAR and TAF weather

Enter ICAO airport designator
Station Type Date Time Source
KEOK METAR 2018/12/10 13:55 UTC NOAA

KEOK 101355Z AUTO 23004KT 2 1/2SM BR CLR M09/M09 A3032 RMK AO2


Station Type Date Time Source
KEOK Decoded METAR 2018/12/10 13:55 UTC NOAA

Keokuk Municipal, IA, United States (KEOK) 40-28N 091-26W
Dec 10, 2018 - 08:55 AM EST / 2018.12.10 1355 UTC
Wind: from the SW (230 degrees) at 5 MPH (4 KT):0
Visibility: 2 1/2 mile(s):0
Sky conditions: clear
Weather: mist
Temperature: 15 F (-9 C)
Windchill: 6 F (-14 C):1
Dew Point: 15 F (-9 C)
Relative Humidity: 100%
Pressure (altimeter): 30.32 in. Hg (1026 hPa)
ob: KEOK 101355Z AUTO 23004KT 2 1/2SM BR CLR M09/M09 A3032 RMK AO2
cycle: 14

Station Type Date Time Source
KEOK TAF UTC NOAA

Error!


Example: see airport list